Terminal Aerodrome Forecast
Issued by NWS Duluth, MN

Current Version | Previous Version | Text Only | Print | Product List | Glossary On
Versions: 1 2 3 4 5 6 7 8 9 10 11 12 13 14 15 16 17
000
FTUS43 KDLH 161734
TAFDLH
TAF
KDLH 161734Z 1618/1718 10012KT P6SM VCSH SCT010 OVC035
      TEMPO 1618/1621 6SM -SHRA BR SCT010 OVC025
     FM162100 10014KT P6SM VCSH SCT010 OVC030
     FM170000 09014KT 5SM -SHRA BR VCTS SCT010 OVC035CB
     FM170500 08011KT 3SM SHRA BR VCTS OVC015CB
     FM170800 09011KT 2SM SHRA BR VCTS BKN006 OVC013CB
     FM171400 05010KT 3SM -SHRA BR OVC006=

USA.gov is the U.S. government's official web portal to all federal, state and local government web resources and services.